createdAt,value
2023-01-05T00:07:07.527Z,19.87
2023-01-05T00:17:33.937Z,15.18
2023-01-05T00:27:43.253Z,20.08
2023-01-05T00:37:45.754Z,15.45
2023-01-05T00:47:48.058Z,18.17
2023-01-05T00:57:53.907Z,16.95
2023-01-05T01:07:55.617Z,16.42
2023-01-05T01:17:57.403Z,14.05
2023-01-05T01:27:59.095Z,15.27
2023-01-05T01:38:01.806Z,14.57
2023-01-05T01:48:09.208Z,15.65
2023-01-05T01:58:15.289Z,13.43
2023-01-05T02:08:25.686Z,14.75
2023-01-05T02:18:55.207Z,13.35
2023-01-05T02:29:26.028Z,14.68
2023-01-05T02:39:44.014Z,13.13
2023-01-05T02:49:45.939Z,14.18
2023-01-05T02:59:54.641Z,14.48
2023-01-05T03:09:56.654Z,15.15
2023-01-05T03:20:02.745Z,13.73
2023-01-05T03:30:26.999Z,13.45
2023-01-05T03:50:36.916Z,12.02
2023-01-05T04:00:39.615Z,14.10
2023-01-05T04:10:41.404Z,14.98
2023-01-05T04:20:43.182Z,14.63
2023-01-05T04:30:45.230Z,15.85
2023-01-05T04:40:52.131Z,14.73
2023-01-05T04:50:56.114Z,13.70
2023-01-05T05:01:02.015Z,13.40
2023-01-05T05:11:06.267Z,12.35
2023-01-05T05:21:09.000Z,11.68
2023-01-05T05:31:10.887Z,12.90
2023-01-05T05:41:13.810Z,13.38
2023-01-05T05:51:15.617Z,13.67
2023-01-05T06:01:17.562Z,15.40
2023-01-05T06:11:22.454Z,13.25
2023-01-05T06:21:24.274Z,14.45
2023-01-05T06:31:26.162Z,15.40
2023-01-05T06:41:27.931Z,15.82
2023-01-05T06:51:29.661Z,12.82
2023-01-05T07:01:39.244Z,13.77
2023-01-05T07:11:42.150Z,13.95
2023-01-05T07:21:45.029Z,15.20
2023-01-05T07:31:49.948Z,13.87
2023-01-05T07:41:51.665Z,13.93
2023-01-05T07:51:55.361Z,15.25
2023-01-05T08:12:00.564Z,14.88
2023-01-05T08:22:03.258Z,13.85
2023-01-05T08:32:11.839Z,15.77
2023-01-05T08:42:13.828Z,15.07
2023-01-05T08:52:18.606Z,16.65
2023-01-05T09:02:25.444Z,16.70
2023-01-05T09:12:33.170Z,17.08
2023-01-05T09:22:36.771Z,18.00
2023-01-05T09:32:38.575Z,17.30
2023-01-05T09:42:45.272Z,16.80
2023-01-05T09:52:49.401Z,16.13
2023-01-05T10:03:10.974Z,15.88
2023-01-05T10:13:32.150Z,13.97
2023-01-05T10:24:12.590Z,12.02
2023-01-05T10:34:22.655Z,10.65
2023-01-05T10:44:46.683Z,13.43
2023-01-05T11:05:07.186Z,13.75
2023-01-05T11:15:15.605Z,16.60
2023-01-05T11:25:33.344Z,16.73
2023-01-05T11:35:38.536Z,17.50
2023-01-05T11:45:55.899Z,5.75
2023-01-05T11:56:04.217Z,2.20
2023-01-05T12:06:24.911Z,1.60
2023-01-05T12:16:46.937Z,1.63
2023-01-05T12:27:26.661Z,1.50
2023-01-05T12:37:56.861Z,1.05
2023-01-05T12:48:12.806Z,1.25
2023-01-05T12:58:30.187Z,1.10
2023-01-05T13:08:38.484Z,1.50
2023-01-05T13:18:54.799Z,1.70
2023-01-05T13:28:57.833Z,1.83
2023-01-05T13:39:26.636Z,2.30
2023-01-05T13:49:56.363Z,2.60
2023-01-05T14:00:11.802Z,2.00
2023-01-05T14:10:25.591Z,2.60
2023-01-05T14:20:42.377Z,2.80
2023-01-05T14:30:44.127Z,2.00
2023-01-05T14:40:55.750Z,2.20
2023-01-05T14:51:20.434Z,1.85
2023-01-05T15:01:56.862Z,1.77
2023-01-05T15:12:13.770Z,1.70
2023-01-05T15:22:53.150Z,2.40
2023-01-05T15:33:27.811Z,2.92
2023-01-05T15:43:32.228Z,2.08
2023-01-05T15:53:38.316Z,1.85
2023-01-05T16:03:42.375Z,2.33
2023-01-05T16:13:52.078Z,1.25
2023-01-05T16:24:00.125Z,2.35
2023-01-05T16:34:29.628Z,3.10
2023-01-05T16:44:34.475Z,2.97
2023-01-05T16:54:41.785Z,2.50
2023-01-05T17:04:43.710Z,2.17
2023-01-05T17:14:46.832Z,1.70
2023-01-05T17:24:48.759Z,1.70
2023-01-05T17:34:56.561Z,4.25
2023-01-05T17:44:59.919Z,1.98
2023-01-05T17:55:01.775Z,1.67
2023-01-05T18:05:06.070Z,2.28
2023-01-05T18:15:10.786Z,1.67
2023-01-05T18:25:16.747Z,1.10
2023-01-05T18:35:20.653Z,0.90
2023-01-05T18:45:31.879Z,0.93
2023-01-05T18:55:34.191Z,1.67
2023-01-05T19:05:43.240Z,1.10
2023-01-05T19:15:48.261Z,1.42
2023-01-05T19:25:50.547Z,1.45
2023-01-05T19:35:52.612Z,1.88
2023-01-05T19:46:01.398Z,1.95
2023-01-05T19:56:14.279Z,0.98
2023-01-05T20:06:25.842Z,1.33
2023-01-05T20:16:28.060Z,1.13
2023-01-05T20:26:32.052Z,1.00
2023-01-05T20:36:35.716Z,2.53
2023-01-05T20:46:44.348Z,1.73
2023-01-05T21:06:46.392Z,1.20
2023-01-05T21:16:55.101Z,1.73
2023-01-05T21:26:58.274Z,1.45
2023-01-05T21:37:01.281Z,1.13
2023-01-05T21:47:06.633Z,1.40
2023-01-05T21:57:08.674Z,1.90
2023-01-05T22:07:10.589Z,2.20
2023-01-05T22:17:12.260Z,1.50
2023-01-05T22:27:14.221Z,1.80
2023-01-05T22:37:17.725Z,1.42
2023-01-05T22:47:20.716Z,1.50
2023-01-05T22:57:23.000Z,1.20
2023-01-05T23:07:28.982Z,1.48
2023-01-05T23:17:31.765Z,1.55
2023-01-05T23:27:33.609Z,1.60
2023-01-05T23:37:36.732Z,1.10
2023-01-05T23:47:38.389Z,1.23
2023-01-05T23:57:41.907Z,1.00
